sensor_id;sensor_type;location;lat;lon;timestamp;temperature;humidity
50067;DHT22;35952;52.524;13.340;2023-11-19T00:00:19;4.90;99.90
50067;DHT22;35952;52.524;13.340;2023-11-19T00:02:45;5.00;99.90
50067;DHT22;35952;52.524;13.340;2023-11-19T00:05:11;5.00;99.90
50067;DHT22;35952;52.524;13.340;2023-11-19T00:07:37;5.00;99.90
50067;DHT22;35952;52.524;13.340;2023-11-19T00:10:11;5.10;99.90
50067;DHT22;35952;52.524;13.340;2023-11-19T00:12:38;5.00;99.90
50067;DHT22;35952;52.524;13.340;2023-11-19T00:15:05;5.00;99.90
50067;DHT22;35952;52.524;13.340;2023-11-19T00:17:31;5.00;99.90
50067;DHT22;35952;52.524;13.340;2023-11-19T00:19:57;5.10;99.90
50067;DHT22;35952;52.524;13.340;2023-11-19T00:22:22;5.10;99.90
50067;DHT22;35952;52.524;13.340;2023-11-19T00:24:48;5.00;99.90
50067;DHT22;35952;52.524;13.340;2023-11-19T00:27:14;5.00;99.90
50067;DHT22;35952;52.524;13.340;2023-11-19T00:29:40;5.10;99.90
50067;DHT22;35952;52.524;13.340;2023-11-19T00:32:05;5.10;99.90
50067;DHT22;35952;52.524;13.340;2023-11-19T00:34:33;5.10;99.90
50067;DHT22;35952;52.524;13.340;2023-11-19T00:36:58;5.20;99.90
50067;DHT22;35952;52.524;13.340;2023-11-19T00:39:23;5.20;99.90
50067;DHT22;35952;52.524;13.340;2023-11-19T00:41:49;5.10;99.90
50067;DHT22;35952;52.524;13.340;2023-11-19T00:44:15;5.20;99.90
50067;DHT22;35952;52.524;13.340;2023-11-19T00:46:40;5.20;99.90
50067;DHT22;35952;52.524;13.340;2023-11-19T00:49:06;5.20;99.90
50067;DHT22;35952;52.524;13.340;2023-11-19T00:51:31;5.10;99.90
50067;DHT22;35952;52.524;13.340;2023-11-19T00:53:57;5.20;99.90
50067;DHT22;35952;52.524;13.340;2023-11-19T00:56:24;5.20;99.90
50067;DHT22;35952;52.524;13.340;2023-11-19T00:58:50;5.30;99.90
50067;DHT22;35952;52.524;13.340;2023-11-19T01:01:15;5.20;99.90
50067;DHT22;35952;52.524;13.340;2023-11-19T01:03:41;5.30;99.90
50067;DHT22;35952;52.524;13.340;2023-11-19T01:06:10;5.30;99.90
50067;DHT22;35952;52.524;13.340;2023-11-19T01:08:35;5.30;99.90
50067;DHT22;35952;52.524;13.340;2023-11-19T01:11:01;5.30;99.90
50067;DHT22;35952;52.524;13.340;2023-11-19T01:13:27;5.30;99.90
50067;DHT22;35952;52.524;13.340;2023-11-19T01:15:53;5.30;99.90
50067;DHT22;35952;52.524;13.340;2023-11-19T01:18:18;5.30;99.90
50067;DHT22;35952;52.524;13.340;2023-11-19T01:20:44;5.40;99.90
50067;DHT22;35952;52.524;13.340;2023-11-19T01:23:09;5.30;99.90
50067;DHT22;35952;52.524;13.340;2023-11-19T01:25:35;5.40;99.90
50067;DHT22;35952;52.524;13.340;2023-11-19T01:28:01;5.40;99.90
50067;DHT22;35952;52.524;13.340;2023-11-19T01:30:27;5.40;99.90
50067;DHT22;35952;52.524;13.340;2023-11-19T01:32:53;5.30;99.90
50067;DHT22;35952;52.524;13.340;2023-11-19T01:35:19;5.40;99.90
50067;DHT22;35952;52.524;13.340;2023-11-19T01:37:44;5.30;99.90
50067;DHT22;35952;52.524;13.340;2023-11-19T01:40:10;5.40;99.90
50067;DHT22;35952;52.524;13.340;2023-11-19T01:42:37;5.30;99.90
50067;DHT22;35952;52.524;13.340;2023-11-19T01:45:06;5.30;99.90
50067;DHT22;35952;52.524;13.340;2023-11-19T01:47:35;5.30;99.90
50067;DHT22;35952;52.524;13.340;2023-11-19T01:50:01;5.30;99.90
50067;DHT22;35952;52.524;13.340;2023-11-19T01:52:27;5.40;99.90
50067;DHT22;35952;52.524;13.340;2023-11-19T01:54:53;5.40;99.90
50067;DHT22;35952;52.524;13.340;2023-11-19T01:57:21;5.40;99.90
50067;DHT22;35952;52.524;13.340;2023-11-19T01:59:49;5.40;99.90
50067;DHT22;35952;52.524;13.340;2023-11-19T02:02:16;5.30;99.90
50067;DHT22;35952;52.524;13.340;2023-11-19T02:04:49;5.30;99.90
50067;DHT22;35952;52.524;13.340;2023-11-19T02:07:16;5.30;99.90
50067;DHT22;35952;52.524;13.340;2023-11-19T02:09:43;5.20;99.90
50067;DHT22;35952;52.524;13.340;2023-11-19T02:12:09;5.10;99.90
50067;DHT22;35952;52.524;13.340;2023-11-19T02:14:37;5.10;99.90
50067;DHT22;35952;52.524;13.340;2023-11-19T02:17:03;5.10;99.90
50067;DHT22;35952;52.524;13.340;2023-11-19T02:19:28;5.10;99.90
50067;DHT22;35952;52.524;13.340;2023-11-19T02:21:54;5.00;99.90
50067;DHT22;35952;52.524;13.340;2023-11-19T02:24:22;5.10;99.90
50067;DHT22;35952;52.524;13.340;2023-11-19T02:29:49;5.20;99.90
50067;DHT22;35952;52.524;13.340;2023-11-19T02:32:16;5.20;99.90
50067;DHT22;35952;52.524;13.340;2023-11-19T02:34:41;5.30;99.90
50067;DHT22;35952;52.524;13.340;2023-11-19T02:37:07;5.20;99.90
50067;DHT22;35952;52.524;13.340;2023-11-19T02:39:33;5.30;99.90
50067;DHT22;35952;52.524;13.340;2023-11-19T02:41:59;5.30;99.90
50067;DHT22;35952;52.524;13.340;2023-11-19T02:44:25;5.30;99.90
50067;DHT22;35952;52.524;13.340;2023-11-19T02:46:53;5.30;99.90
50067;DHT22;35952;52.524;13.340;2023-11-19T02:49:19;5.30;99.90
50067;DHT22;35952;52.524;13.340;2023-11-19T02:51:45;5.40;99.90
50067;DHT22;35952;52.524;13.340;2023-11-19T02:54:10;5.40;99.90
50067;DHT22;35952;52.524;13.340;2023-11-19T02:56:36;5.40;99.90
50067;DHT22;35952;52.524;13.340;2023-11-19T02:59:02;5.40;99.90
50067;DHT22;35952;52.524;13.340;2023-11-19T03:01:40;5.50;99.90
50067;DHT22;35952;52.524;13.340;2023-11-19T03:04:09;5.50;99.90
50067;DHT22;35952;52.524;13.340;2023-11-19T03:06:37;5.50;99.90
50067;DHT22;35952;52.524;13.340;2023-11-19T03:09:03;5.40;99.90
50067;DHT22;35952;52.524;13.340;2023-11-19T03:11:33;5.40;99.90
50067;DHT22;35952;52.524;13.340;2023-11-19T03:13:59;5.40;99.90
50067;DHT22;35952;52.524;13.340;2023-11-19T03:16:24;5.40;99.90
50067;DHT22;35952;52.524;13.340;2023-11-19T03:18:50;5.40;99.90
50067;DHT22;35952;52.524;13.340;2023-11-19T03:21:16;5.40;99.90
50067;DHT22;35952;52.524;13.340;2023-11-19T03:23:41;5.50;99.90
50067;DHT22;35952;52.524;13.340;2023-11-19T03:26:10;5.50;99.90
50067;DHT22;35952;52.524;13.340;2023-11-19T03:28:36;5.50;99.90
50067;DHT22;35952;52.524;13.340;2023-11-19T03:31:04;5.50;99.90
50067;DHT22;35952;52.524;13.340;2023-11-19T03:33:33;5.50;99.90
50067;DHT22;35952;52.524;13.340;2023-11-19T03:36:02;5.40;99.90
50067;DHT22;35952;52.524;13.340;2023-11-19T03:38:27;5.20;99.90
50067;DHT22;35952;52.524;13.340;2023-11-19T03:40:53;5.10;99.90
50067;DHT22;35952;52.524;13.340;2023-11-19T03:43:19;5.00;99.90
50067;DHT22;35952;52.524;13.340;2023-11-19T03:45:44;4.80;99.90
50067;DHT22;35952;52.524;13.340;2023-11-19T03:48:10;4.80;99.90
50067;DHT22;35952;52.524;13.340;2023-11-19T03:50:35;4.80;99.90
50067;DHT22;35952;52.524;13.340;2023-11-19T03:53:01;4.80;99.90
50067;DHT22;35952;52.524;13.340;2023-11-19T03:55:28;4.60;99.90
50067;DHT22;35952;52.524;13.340;2023-11-19T03:57:54;4.50;99.90
50067;DHT22;35952;52.524;13.340;2023-11-19T04:00:20;4.50;99.90
50067;DHT22;35952;52.524;13.340;2023-11-19T04:02:46;4.50;99.90
50067;DHT22;35952;52.524;13.340;2023-11-19T04:05:12;4.50;99.90
50067;DHT22;35952;52.524;13.340;2023-11-19T04:07:38;4.50;99.90
50067;DHT22;35952;52.524;13.340;2023-11-19T04:10:03;4.50;99.90
50067;DHT22;35952;52.524;13.340;2023-11-19T04:12:29;4.40;99.90
50067;DHT22;35952;52.524;13.340;2023-11-19T04:14:55;4.40;99.90
50067;DHT22;35952;52.524;13.340;2023-11-19T04:17:21;4.40;99.90
50067;DHT22;35952;52.524;13.340;2023-11-19T04:19:48;4.50;99.90
50067;DHT22;35952;52.524;13.340;2023-11-19T04:22:14;4.40;99.90
50067;DHT22;35952;52.524;13.340;2023-11-19T04:24:39;4.40;99.90
50067;DHT22;35952;52.524;13.340;2023-11-19T04:27:06;4.40;99.90
50067;DHT22;35952;52.524;13.340;2023-11-19T04:29:31;4.40;99.90
50067;DHT22;35952;52.524;13.340;2023-11-19T04:31:57;4.50;99.90
50067;DHT22;35952;52.524;13.340;2023-11-19T04:34:23;4.50;99.90
50067;DHT22;35952;52.524;13.340;2023-11-19T04:36:49;4.50;99.90
50067;DHT22;35952;52.524;13.340;2023-11-19T04:39:14;4.50;99.90
50067;DHT22;35952;52.524;13.340;2023-11-19T04:41:50;4.50;99.90
50067;DHT22;35952;52.524;13.340;2023-11-19T04:44:18;4.50;99.90
50067;DHT22;35952;52.524;13.340;2023-11-19T04:46:44;4.50;99.90
50067;DHT22;35952;52.524;13.340;2023-11-19T04:49:10;4.60;99.90
50067;DHT22;35952;52.524;13.340;2023-11-19T04:51:40;4.50;99.90
50067;DHT22;35952;52.524;13.340;2023-11-19T04:54:07;4.60;99.90
50067;DHT22;35952;52.524;13.340;2023-11-19T04:56:34;4.60;99.90
50067;DHT22;35952;52.524;13.340;2023-11-19T04:59:00;4.60;99.90
50067;DHT22;35952;52.524;13.340;2023-11-19T05:01:31;4.50;99.90
50067;DHT22;35952;52.524;13.340;2023-11-19T05:03:57;4.50;99.90
50067;DHT22;35952;52.524;13.340;2023-11-19T05:06:27;4.60;99.90
50067;DHT22;35952;52.524;13.340;2023-11-19T05:08:53;4.60;99.90
50067;DHT22;35952;52.524;13.340;2023-11-19T05:11:19;4.60;99.90
50067;DHT22;35952;52.524;13.340;2023-11-19T05:13:45;4.60;99.90
50067;DHT22;35952;52.524;13.340;2023-11-19T05:16:11;4.50;99.90
50067;DHT22;35952;52.524;13.340;2023-11-19T05:18:39;4.60;99.90
50067;DHT22;35952;52.524;13.340;2023-11-19T05:21:05;4.60;99.90
50067;DHT22;35952;52.524;13.340;2023-11-19T05:23:32;4.60;99.90
50067;DHT22;35952;52.524;13.340;2023-11-19T05:26:00;4.60;99.90
50067;DHT22;35952;52.524;13.340;2023-11-19T05:28:25;4.60;99.90
50067;DHT22;35952;52.524;13.340;2023-11-19T05:30:51;4.60;99.90
50067;DHT22;35952;52.524;13.340;2023-11-19T05:33:17;4.50;99.90
50067;DHT22;35952;52.524;13.340;2023-11-19T05:35:43;4.50;99.90
50067;DHT22;35952;52.524;13.340;2023-11-19T05:38:08;4.50;99.90
50067;DHT22;35952;52.524;13.340;2023-11-19T05:40:35;4.50;99.90
50067;DHT22;35952;52.524;13.340;2023-11-19T05:43:00;4.60;99.90
50067;DHT22;35952;52.524;13.340;2023-11-19T05:45:26;4.60;99.90
50067;DHT22;35952;52.524;13.340;2023-11-19T05:47:52;4.60;99.90
50067;DHT22;35952;52.524;13.340;2023-11-19T05:50:18;4.60;99.90
50067;DHT22;35952;52.524;13.340;2023-11-19T05:52:43;4.60;99.90
50067;DHT22;35952;52.524;13.340;2023-11-19T05:55:09;4.60;99.90
50067;DHT22;35952;52.524;13.340;2023-11-19T05:57:36;4.70;99.90
50067;DHT22;35952;52.524;13.340;2023-11-19T06:00:02;4.70;99.90
50067;DHT22;35952;52.524;13.340;2023-11-19T06:02:32;4.70;99.90
50067;DHT22;35952;52.524;13.340;2023-11-19T06:05:03;4.70;99.90
50067;DHT22;35952;52.524;13.340;2023-11-19T06:07:31;4.70;99.90
50067;DHT22;35952;52.524;13.340;2023-11-19T06:09:56;4.70;99.90
50067;DHT22;35952;52.524;13.340;2023-11-19T06:12:22;4.70;99.90
50067;DHT22;35952;52.524;13.340;2023-11-19T06:14:47;4.70;99.90
50067;DHT22;35952;52.524;13.340;2023-11-19T06:17:13;4.70;99.90
50067;DHT22;35952;52.524;13.340;2023-11-19T06:19:39;4.70;99.90
50067;DHT22;35952;52.524;13.340;2023-11-19T06:22:04;4.70;99.90
50067;DHT22;35952;52.524;13.340;2023-11-19T06:24:30;4.80;99.90
50067;DHT22;35952;52.524;13.340;2023-11-19T06:26:56;4.70;99.90
50067;DHT22;35952;52.524;13.340;2023-11-19T06:29:21;4.70;99.90
50067;DHT22;35952;52.524;13.340;2023-11-19T06:31:47;4.80;99.90
50067;DHT22;35952;52.524;13.340;2023-11-19T06:34:15;4.80;99.90
50067;DHT22;35952;52.524;13.340;2023-11-19T06:36:41;4.80;99.90
50067;DHT22;35952;52.524;13.340;2023-11-19T06:39:09;4.90;99.90
50067;DHT22;35952;52.524;13.340;2023-11-19T06:41:34;4.90;99.90
50067;DHT22;35952;52.524;13.340;2023-11-19T06:44:00;4.90;99.90
50067;DHT22;35952;52.524;13.340;2023-11-19T06:46:25;4.90;99.90
50067;DHT22;35952;52.524;13.340;2023-11-19T06:48:51;4.90;99.90
50067;DHT22;35952;52.524;13.340;2023-11-19T06:51:16;4.90;99.90
50067;DHT22;35952;52.524;13.340;2023-11-19T06:53:45;4.90;99.90
50067;DHT22;35952;52.524;13.340;2023-11-19T06:56:21;4.90;99.90
50067;DHT22;35952;52.524;13.340;2023-11-19T06:58:46;5.00;99.90
50067;DHT22;35952;52.524;13.340;2023-11-19T07:01:14;4.90;99.90
50067;DHT22;35952;52.524;13.340;2023-11-19T07:03:40;5.00;99.90
50067;DHT22;35952;52.524;13.340;2023-11-19T07:06:06;5.10;99.90
50067;DHT22;35952;52.524;13.340;2023-11-19T07:08:31;5.10;99.90
50067;DHT22;35952;52.524;13.340;2023-11-19T07:10:59;5.10;99.90
50067;DHT22;35952;52.524;13.340;2023-11-19T07:13:25;5.10;99.90
50067;DHT22;35952;52.524;13.340;2023-11-19T07:15:53;5.20;99.90
50067;DHT22;35952;52.524;13.340;2023-11-19T07:18:19;5.10;99.90
50067;DHT22;35952;52.524;13.340;2023-11-19T07:20:47;5.10;99.90
50067;DHT22;35952;52.524;13.340;2023-11-19T07:23:13;5.20;99.90
50067;DHT22;35952;52.524;13.340;2023-11-19T07:25:45;5.30;99.90
50067;DHT22;35952;52.524;13.340;2023-11-19T07:28:12;5.40;99.90
50067;DHT22;35952;52.524;13.340;2023-11-19T07:30:38;5.40;99.90
50067;DHT22;35952;52.524;13.340;2023-11-19T07:33:04;5.30;99.90
50067;DHT22;35952;52.524;13.340;2023-11-19T07:35:30;5.40;99.90
50067;DHT22;35952;52.524;13.340;2023-11-19T07:37:57;5.40;99.90
50067;DHT22;35952;52.524;13.340;2023-11-19T07:40:26;5.40;99.90
50067;DHT22;35952;52.524;13.340;2023-11-19T07:42:51;5.40;99.90
50067;DHT22;35952;52.524;13.340;2023-11-19T07:45:17;5.50;99.90
50067;DHT22;35952;52.524;13.340;2023-11-19T07:47:43;5.50;99.90
50067;DHT22;35952;52.524;13.340;2023-11-19T07:50:10;5.60;99.90
50067;DHT22;35952;52.524;13.340;2023-11-19T07:52:37;5.60;99.90
50067;DHT22;35952;52.524;13.340;2023-11-19T07:55:02;5.60;99.90
50067;DHT22;35952;52.524;13.340;2023-11-19T07:57:28;5.60;99.90
50067;DHT22;35952;52.524;13.340;2023-11-19T07:59:56;5.70;99.90
50067;DHT22;35952;52.524;13.340;2023-11-19T08:02:22;5.80;99.90
50067;DHT22;35952;52.524;13.340;2023-11-19T08:04:49;5.80;99.90
50067;DHT22;35952;52.524;13.340;2023-11-19T08:07:17;5.80;99.90
50067;DHT22;35952;52.524;13.340;2023-11-19T08:09:43;5.90;99.90
50067;DHT22;35952;52.524;13.340;2023-11-19T08:12:09;5.90;99.90
50067;DHT22;35952;52.524;13.340;2023-11-19T08:14:35;5.90;99.90
50067;DHT22;35952;52.524;13.340;2023-11-19T08:17:00;6.00;99.90
50067;DHT22;35952;52.524;13.340;2023-11-19T08:19:26;6.10;99.90
50067;DHT22;35952;52.524;13.340;2023-11-19T08:21:51;6.10;99.90
50067;DHT22;35952;52.524;13.340;2023-11-19T08:24:17;6.20;99.90
50067;DHT22;35952;52.524;13.340;2023-11-19T08:26:43;6.30;99.90
50067;DHT22;35952;52.524;13.340;2023-11-19T08:29:09;6.30;99.90
50067;DHT22;35952;52.524;13.340;2023-11-19T08:31:35;6.40;99.90
50067;DHT22;35952;52.524;13.340;2023-11-19T08:34:01;6.40;99.90
50067;DHT22;35952;52.524;13.340;2023-11-19T08:36:26;6.40;99.90
50067;DHT22;35952;52.524;13.340;2023-11-19T08:38:54;6.40;99.90
50067;DHT22;35952;52.524;13.340;2023-11-19T08:41:21;6.50;99.90
50067;DHT22;35952;52.524;13.340;2023-11-19T08:43:46;6.50;99.90
50067;DHT22;35952;52.524;13.340;2023-11-19T08:46:12;6.60;99.90
50067;DHT22;35952;52.524;13.340;2023-11-19T08:48:38;6.70;99.90
50067;DHT22;35952;52.524;13.340;2023-11-19T08:51:04;6.80;99.90
50067;DHT22;35952;52.524;13.340;2023-11-19T08:53:30;7.00;99.90
50067;DHT22;35952;52.524;13.340;2023-11-19T08:55:55;7.00;99.90
50067;DHT22;35952;52.524;13.340;2023-11-19T08:58:21;7.10;99.90
50067;DHT22;35952;52.524;13.340;2023-11-19T09:00:47;7.10;99.90
50067;DHT22;35952;52.524;13.340;2023-11-19T09:03:12;7.00;99.90
50067;DHT22;35952;52.524;13.340;2023-11-19T09:05:38;7.10;99.90
50067;DHT22;35952;52.524;13.340;2023-11-19T09:08:04;7.20;99.90
50067;DHT22;35952;52.524;13.340;2023-11-19T09:10:29;7.30;99.90
50067;DHT22;35952;52.524;13.340;2023-11-19T09:12:55;7.30;99.90
50067;DHT22;35952;52.524;13.340;2023-11-19T09:15:21;7.20;99.90
50067;DHT22;35952;52.524;13.340;2023-11-19T09:17:46;7.40;99.90
50067;DHT22;35952;52.524;13.340;2023-11-19T09:20:12;7.60;99.90
50067;DHT22;35952;52.524;13.340;2023-11-19T09:22:41;7.60;99.90
50067;DHT22;35952;52.524;13.340;2023-11-19T09:25:07;7.80;99.90
50067;DHT22;35952;52.524;13.340;2023-11-19T09:27:32;7.90;99.90
50067;DHT22;35952;52.524;13.340;2023-11-19T09:29:58;7.80;99.90
50067;DHT22;35952;52.524;13.340;2023-11-19T09:32:24;7.90;99.90
50067;DHT22;35952;52.524;13.340;2023-11-19T09:34:51;8.10;99.90
50067;DHT22;35952;52.524;13.340;2023-11-19T09:37:16;8.30;99.90
50067;DHT22;35952;52.524;13.340;2023-11-19T09:39:42;8.30;99.90
50067;DHT22;35952;52.524;13.340;2023-11-19T09:42:10;8.40;99.90
50067;DHT22;35952;52.524;13.340;2023-11-19T09:44:38;8.30;99.90
50067;DHT22;35952;52.524;13.340;2023-11-19T09:47:05;8.50;99.90
50067;DHT22;35952;52.524;13.340;2023-11-19T09:49:31;8.50;99.90
50067;DHT22;35952;52.524;13.340;2023-11-19T09:51:56;8.60;99.90
50067;DHT22;35952;52.524;13.340;2023-11-19T09:54:22;8.80;99.90
50067;DHT22;35952;52.524;13.340;2023-11-19T09:56:48;8.90;99.90
50067;DHT22;35952;52.524;13.340;2023-11-19T09:59:14;9.00;99.90
50067;DHT22;35952;52.524;13.340;2023-11-19T10:01:40;9.10;99.90
50067;DHT22;35952;52.524;13.340;2023-11-19T10:04:06;9.10;99.90
50067;DHT22;35952;52.524;13.340;2023-11-19T10:06:33;9.20;99.90
50067;DHT22;35952;52.524;13.340;2023-11-19T10:08:58;9.30;99.90
50067;DHT22;35952;52.524;13.340;2023-11-19T10:11:25;9.30;99.90
50067;DHT22;35952;52.524;13.340;2023-11-19T10:13:52;9.30;99.90
50067;DHT22;35952;52.524;13.340;2023-11-19T10:16:18;9.40;99.90
50067;DHT22;35952;52.524;13.340;2023-11-19T10:18:49;9.40;99.90
50067;DHT22;35952;52.524;13.340;2023-11-19T10:21:18;9.50;99.90
50067;DHT22;35952;52.524;13.340;2023-11-19T10:23:50;9.60;99.90
50067;DHT22;35952;52.524;13.340;2023-11-19T10:26:16;9.60;99.90
50067;DHT22;35952;52.524;13.340;2023-11-19T10:28:42;9.70;99.90
50067;DHT22;35952;52.524;13.340;2023-11-19T10:31:11;9.80;99.90
50067;DHT22;35952;52.524;13.340;2023-11-19T10:33:38;10.00;99.90
50067;DHT22;35952;52.524;13.340;2023-11-19T10:36:04;10.10;99.90
50067;DHT22;35952;52.524;13.340;2023-11-19T10:38:30;10.20;99.90
50067;DHT22;35952;52.524;13.340;2023-11-19T10:40:56;10.40;99.90
50067;DHT22;35952;52.524;13.340;2023-11-19T10:43:22;10.70;99.90
50067;DHT22;35952;52.524;13.340;2023-11-19T10:45:48;10.90;99.90
50067;DHT22;35952;52.524;13.340;2023-11-19T10:48:14;11.00;99.90
50067;DHT22;35952;52.524;13.340;2023-11-19T10:50:41;11.10;99.90
50067;DHT22;35952;52.524;13.340;2023-11-19T10:53:09;11.20;99.90
50067;DHT22;35952;52.524;13.340;2023-11-19T10:55:36;11.20;99.90
50067;DHT22;35952;52.524;13.340;2023-11-19T10:58:08;11.30;99.90
50067;DHT22;35952;52.524;13.340;2023-11-19T11:03:20;11.20;99.90
50067;DHT22;35952;52.524;13.340;2023-11-19T11:05:47;10.90;99.90
50067;DHT22;35952;52.524;13.340;2023-11-19T11:08:13;10.70;99.90
50067;DHT22;35952;52.524;13.340;2023-11-19T11:13:19;10.60;99.90
50067;DHT22;35952;52.524;13.340;2023-11-19T11:15:45;10.60;99.90
50067;DHT22;35952;52.524;13.340;2023-11-19T11:18:12;10.70;99.90
50067;DHT22;35952;52.524;13.340;2023-11-19T11:20:39;10.70;99.90
50067;DHT22;35952;52.524;13.340;2023-11-19T11:26:21;10.70;99.90
50067;DHT22;35952;52.524;13.340;2023-11-19T11:29:16;10.70;99.90
50067;DHT22;35952;52.524;13.340;2023-11-19T11:35:22;10.70;99.90
50067;DHT22;35952;52.524;13.340;2023-11-19T11:37:54;10.70;99.90
50067;DHT22;35952;52.524;13.340;2023-11-19T11:40:21;10.80;99.90
50067;DHT22;35952;52.524;13.340;2023-11-19T11:42:51;10.80;99.90
50067;DHT22;35952;52.524;13.340;2023-11-19T11:45:18;10.90;99.90
50067;DHT22;35952;52.524;13.340;2023-11-19T11:50:22;11.20;99.90
50067;DHT22;35952;52.524;13.340;2023-11-19T11:58:21;11.50;99.90
50067;DHT22;35952;52.524;13.340;2023-11-19T12:00:51;11.60;99.90
50067;DHT22;35952;52.524;13.340;2023-11-19T12:03:20;11.50;99.90
50067;DHT22;35952;52.524;13.340;2023-11-19T12:05:47;11.50;99.90
50067;DHT22;35952;52.524;13.340;2023-11-19T12:08:14;11.50;99.90
50067;DHT22;35952;52.524;13.340;2023-11-19T12:10:51;11.50;99.90
50067;DHT22;35952;52.524;13.340;2023-11-19T12:13:18;11.50;99.90
50067;DHT22;35952;52.524;13.340;2023-11-19T12:18:31;11.60;99.90
50067;DHT22;35952;52.524;13.340;2023-11-19T12:20:57;11.60;99.90
50067;DHT22;35952;52.524;13.340;2023-11-19T12:23:26;11.60;99.90
50067;DHT22;35952;52.524;13.340;2023-11-19T12:25:52;11.50;99.90
50067;DHT22;35952;52.524;13.340;2023-11-19T12:28:18;11.50;99.90
50067;DHT22;35952;52.524;13.340;2023-11-19T12:30:47;11.40;99.90
50067;DHT22;35952;52.524;13.340;2023-11-19T12:33:13;11.40;99.90
50067;DHT22;35952;52.524;13.340;2023-11-19T12:35:44;11.40;99.90
50067;DHT22;35952;52.524;13.340;2023-11-19T12:38:25;11.40;99.90
50067;DHT22;35952;52.524;13.340;2023-11-19T12:41:23;11.30;99.90
50067;DHT22;35952;52.524;13.340;2023-11-19T12:43:49;11.20;99.90
50067;DHT22;35952;52.524;13.340;2023-11-19T12:46:22;11.20;99.90
50067;DHT22;35952;52.524;13.340;2023-11-19T12:48:49;11.10;99.90
50067;DHT22;35952;52.524;13.340;2023-11-19T12:51:15;11.10;99.90
50067;DHT22;35952;52.524;13.340;2023-11-19T12:53:52;11.20;99.90
50067;DHT22;35952;52.524;13.340;2023-11-19T12:56:21;11.20;99.90
50067;DHT22;35952;52.524;13.340;2023-11-19T12:58:48;11.20;99.90
50067;DHT22;35952;52.524;13.340;2023-11-19T13:01:20;11.10;99.90
50067;DHT22;35952;52.524;13.340;2023-11-19T13:03:46;11.10;99.90
50067;DHT22;35952;52.524;13.340;2023-11-19T13:06:14;11.10;99.90
50067;DHT22;35952;52.524;13.340;2023-11-19T13:08:48;11.10;99.90
50067;DHT22;35952;52.524;13.340;2023-11-19T13:11:30;11.20;99.90
50067;DHT22;35952;52.524;13.340;2023-11-19T13:13:57;11.20;99.90
50067;DHT22;35952;52.524;13.340;2023-11-19T13:16:23;11.20;99.90
50067;DHT22;35952;52.524;13.340;2023-11-19T13:18:49;11.30;99.90
50067;DHT22;35952;52.524;13.340;2023-11-19T13:21:14;11.30;99.90
50067;DHT22;35952;52.524;13.340;2023-11-19T13:23:40;11.20;99.90
50067;DHT22;35952;52.524;13.340;2023-11-19T13:26:06;11.20;99.90
50067;DHT22;35952;52.524;13.340;2023-11-19T13:28:31;11.20;99.90
50067;DHT22;35952;52.524;13.340;2023-11-19T13:31:00;11.20;99.90
50067;DHT22;35952;52.524;13.340;2023-11-19T13:33:25;11.20;99.90
50067;DHT22;35952;52.524;13.340;2023-11-19T13:35:52;11.20;99.90
50067;DHT22;35952;52.524;13.340;2023-11-19T13:38:17;11.30;99.90
50067;DHT22;35952;52.524;13.340;2023-11-19T13:40:43;11.50;99.90
50067;DHT22;35952;52.524;13.340;2023-11-19T13:43:08;11.50;99.90
50067;DHT22;35952;52.524;13.340;2023-11-19T13:45:34;11.50;99.90
50067;DHT22;35952;52.524;13.340;2023-11-19T13:47:59;11.60;99.90
50067;DHT22;35952;52.524;13.340;2023-11-19T13:50:25;11.60;99.90
50067;DHT22;35952;52.524;13.340;2023-11-19T13:52:51;11.60;99.90
50067;DHT22;35952;52.524;13.340;2023-11-19T13:55:17;11.60;99.90
50067;DHT22;35952;52.524;13.340;2023-11-19T13:57:43;11.60;99.90
50067;DHT22;35952;52.524;13.340;2023-11-19T14:00:11;11.60;99.90
50067;DHT22;35952;52.524;13.340;2023-11-19T14:02:45;11.60;99.90
50067;DHT22;35952;52.524;13.340;2023-11-19T14:05:12;11.50;99.90
50067;DHT22;35952;52.524;13.340;2023-11-19T14:07:39;11.50;99.90
50067;DHT22;35952;52.524;13.340;2023-11-19T14:10:05;11.60;99.90
50067;DHT22;35952;52.524;13.340;2023-11-19T14:12:32;11.60;99.90
50067;DHT22;35952;52.524;13.340;2023-11-19T14:14:58;11.60;99.90
50067;DHT22;35952;52.524;13.340;2023-11-19T14:17:24;11.60;99.90
50067;DHT22;35952;52.524;13.340;2023-11-19T14:19:50;11.60;99.90
50067;DHT22;35952;52.524;13.340;2023-11-19T14:22:15;11.60;99.90
50067;DHT22;35952;52.524;13.340;2023-11-19T14:24:41;11.60;99.90
50067;DHT22;35952;52.524;13.340;2023-11-19T14:27:08;11.60;99.90
50067;DHT22;35952;52.524;13.340;2023-11-19T14:29:34;11.50;99.90
50067;DHT22;35952;52.524;13.340;2023-11-19T14:32:01;11.50;99.90
50067;DHT22;35952;52.524;13.340;2023-11-19T14:34:27;11.40;99.90
50067;DHT22;35952;52.524;13.340;2023-11-19T14:36:53;11.40;99.90
50067;DHT22;35952;52.524;13.340;2023-11-19T14:39:20;11.30;99.90
50067;DHT22;35952;52.524;13.340;2023-11-19T14:41:45;11.30;99.90
50067;DHT22;35952;52.524;13.340;2023-11-19T14:44:11;11.30;99.90
50067;DHT22;35952;52.524;13.340;2023-11-19T14:46:36;11.30;99.90
50067;DHT22;35952;52.524;13.340;2023-11-19T14:49:02;11.20;99.90
50067;DHT22;35952;52.524;13.340;2023-11-19T14:51:29;11.20;99.90
50067;DHT22;35952;52.524;13.340;2023-11-19T14:53:55;11.30;99.90
50067;DHT22;35952;52.524;13.340;2023-11-19T14:56:21;11.30;99.90
50067;DHT22;35952;52.524;13.340;2023-11-19T14:58:47;11.30;99.90
50067;DHT22;35952;52.524;13.340;2023-11-19T15:01:13;11.20;99.90
50067;DHT22;35952;52.524;13.340;2023-11-19T15:03:39;11.20;99.90
50067;DHT22;35952;52.524;13.340;2023-11-19T15:06:05;11.20;99.90
50067;DHT22;35952;52.524;13.340;2023-11-19T15:08:32;11.20;99.90
50067;DHT22;35952;52.524;13.340;2023-11-19T15:10:57;11.30;99.90
50067;DHT22;35952;52.524;13.340;2023-11-19T15:13:24;11.20;99.90
50067;DHT22;35952;52.524;13.340;2023-11-19T15:15:49;11.20;99.90
50067;DHT22;35952;52.524;13.340;2023-11-19T15:18:15;11.20;99.90
50067;DHT22;35952;52.524;13.340;2023-11-19T15:20:42;11.20;99.90
50067;DHT22;35952;52.524;13.340;2023-11-19T15:23:12;11.20;99.90
50067;DHT22;35952;52.524;13.340;2023-11-19T15:25:37;11.30;99.90
50067;DHT22;35952;52.524;13.340;2023-11-19T15:28:03;11.20;99.90
50067;DHT22;35952;52.524;13.340;2023-11-19T15:30:29;11.10;99.90
50067;DHT22;35952;52.524;13.340;2023-11-19T15:32:55;11.10;99.90
50067;DHT22;35952;52.524;13.340;2023-11-19T15:35:20;11.10;99.90
50067;DHT22;35952;52.524;13.340;2023-11-19T15:37:46;11.20;99.90
50067;DHT22;35952;52.524;13.340;2023-11-19T15:40:11;11.10;99.90
50067;DHT22;35952;52.524;13.340;2023-11-19T15:42:38;11.10;99.90
50067;DHT22;35952;52.524;13.340;2023-11-19T15:45:05;11.10;99.90
50067;DHT22;35952;52.524;13.340;2023-11-19T15:47:32;11.10;99.90